<?xml version='1.0' encoding='UTF-8'?>
<gpx xmlns="http://www.topografix.com/GPX/1/1" creator="www.balnam.be" version="1.1" xmlns:xsi="http://www.w3.org/2001/XMLSchema-instance" xsi:schemaLocation="http://www.topografix.com/GPX/1/1 http://www.topografix.com/GPX/1/1/gpx.xsd">
<trk>
<name>bojmr1</name>
<cmt>v</cmt>
<desc>Marilles Chemin n°1 Rue du Tumulus</desc>
<link href="https://chemins.be/marilles/chemin/1"/><trkseg>
<trkpt lat="50.697239" lon="4.968524"><time>2026-05-10T02:22:09Z</time></trkpt>
<trkpt lat="50.698680" lon="4.964919"><time>2026-05-10T02:32:09Z</time></trkpt>
<trkpt lat="50.698870" lon="4.964855"><time>2026-05-10T02:42:09Z</time></trkpt>
</trkseg></trk>
<trk>
<name>bojmr1</name>
<cmt>r</cmt>
<desc>Marilles Chemin n°1 Rue du Tumulus</desc>
<link href="https://chemins.be/marilles/chemin/1"/><trkseg>
<trkpt lat="50.698870" lon="4.964855"><time>2026-05-10T02:42:09Z</time></trkpt>
<trkpt lat="50.700875" lon="4.959984"><time>2026-05-10T02:52:09Z</time></trkpt>
<trkpt lat="50.701446" lon="4.955574"><time>2026-05-10T03:02:09Z</time></trkpt>
<trkpt lat="50.702880" lon="4.951969"><time>2026-05-10T03:12:09Z</time></trkpt>
<trkpt lat="50.703722" lon="4.948107"><time>2026-05-10T03:22:09Z</time></trkpt>
<trkpt lat="50.703906" lon="4.946326"><time>2026-05-10T03:32:09Z</time></trkpt>
<trkpt lat="50.706053" lon="4.939706"><time>2026-05-10T03:42:09Z</time></trkpt>
</trkseg></trk>
<trk>
<name>bojmr1</name>
<cmt>s</cmt>
<desc>Marilles Chemin n°1 Rue du Tumulus</desc>
<link href="https://chemins.be/marilles/chemin/1"/><trkseg>
<trkpt lat="50.706053" lon="4.939706"><time>2026-05-10T03:42:09Z</time></trkpt>
<trkpt lat="50.706909" lon="4.938773"><time>2026-05-10T03:52:09Z</time></trkpt>
<trkpt lat="50.707762" lon="4.936364"><time>2026-05-10T04:02:09Z</time></trkpt>
</trkseg></trk>
<trk>
<name>bojmr1</name>
<cmt>v</cmt>
<desc>Marilles Chemin n°1 Rue du Tumulus</desc>
<link href="https://chemins.be/marilles/chemin/1"/><trkseg>
<trkpt lat="50.707762" lon="4.936364"><time>2026-05-10T04:02:09Z</time></trkpt>
<trkpt lat="50.708063" lon="4.935710"><time>2026-05-10T04:12:09Z</time></trkpt>
<trkpt lat="50.709525" lon="4.930648"><time>2026-05-10T04:22:09Z</time></trkpt>
<trkpt lat="50.709709" lon="4.930010"><time>2026-05-10T04:32:09Z</time></trkpt>
<trkpt lat="50.710710" lon="4.927431"><time>2026-05-10T04:42:09Z</time></trkpt>
</trkseg>
</trk>
<trk>
<name>bojmr11</name>
<cmt>v</cmt>
<desc>Marilles Chemin n°11 Rue Haute</desc>
<link href="https://chemins.be/marilles/chemin/11"/><trkseg>
<trkpt lat="50.706962" lon="4.971930"><time>2026-05-10T02:22:09Z</time></trkpt>
<trkpt lat="50.707342" lon="4.966789"><time>2026-05-10T02:32:09Z</time></trkpt>
<trkpt lat="50.706989" lon="4.963013"><time>2026-05-10T02:42:09Z</time></trkpt>
</trkseg></trk>
<trk>
<name>bojmr11</name>
<cmt>r</cmt>
<desc>Marilles Chemin n°11 Rue Haute</desc>
<link href="https://chemins.be/marilles/chemin/11"/><trkseg>
<trkpt lat="50.706989" lon="4.963013"><time>2026-05-10T02:42:09Z</time></trkpt>
<trkpt lat="50.706418" lon="4.961408"><time>2026-05-10T02:52:09Z</time></trkpt>
<trkpt lat="50.706402" lon="4.960695"><time>2026-05-10T03:02:09Z</time></trkpt>
<trkpt lat="50.706750" lon="4.959863"><time>2026-05-10T03:12:09Z</time></trkpt>
<trkpt lat="50.707059" lon="4.957974"><time>2026-05-10T03:22:09Z</time></trkpt>
<trkpt lat="50.707059" lon="4.955932"><time>2026-05-10T03:32:09Z</time></trkpt>
<trkpt lat="50.707342" lon="4.955520"><time>2026-05-10T03:42:09Z</time></trkpt>
<trkpt lat="50.707200" lon="4.952825"><time>2026-05-10T03:52:09Z</time></trkpt>
<trkpt lat="50.707799" lon="4.952189"><time>2026-05-10T04:02:09Z</time></trkpt>
<trkpt lat="50.709125" lon="4.949220"><time>2026-05-10T04:12:09Z</time></trkpt>
<trkpt lat="50.709946" lon="4.946267"><time>2026-05-10T04:22:09Z</time></trkpt>
<trkpt lat="50.709723" lon="4.945409"><time>2026-05-10T04:32:09Z</time></trkpt>
<trkpt lat="50.710707" lon="4.943005"><time>2026-05-10T04:42:09Z</time></trkpt>
</trkseg></trk>
<trk>
<name>bojmr11</name>
<cmt>v</cmt>
<desc>Marilles Chemin n°11 Rue Haute</desc>
<link href="https://chemins.be/marilles/chemin/11"/><trkseg>
<trkpt lat="50.710707" lon="4.943005"><time>2026-05-10T04:42:09Z</time></trkpt>
<trkpt lat="50.710311" lon="4.941287"><time>2026-05-10T04:52:09Z</time></trkpt>
<trkpt lat="50.709904" lon="4.939838"><time>2026-05-10T05:02:09Z</time></trkpt>
<trkpt lat="50.709915" lon="4.939008"><time>2026-05-10T05:12:09Z</time></trkpt>
<trkpt lat="50.710140" lon="4.938343"><time>2026-05-10T05:22:09Z</time></trkpt>
</trkseg></trk>
<trk>
<name>bojmr11</name>
<cmt>d</cmt>
<desc>Marilles Chemin n°11 Rue Haute</desc>
<link href="https://chemins.be/marilles/chemin/11"/><trkseg>
<trkpt lat="50.710140" lon="4.938343"><time>2026-05-10T05:22:09Z</time></trkpt>
<trkpt lat="50.710340" lon="4.935270"><time>2026-05-10T05:32:09Z</time></trkpt>
<trkpt lat="50.710324" lon="4.933089"><time>2026-05-10T05:42:09Z</time></trkpt>
<trkpt lat="50.710670" lon="4.932187"><time>2026-05-10T05:52:09Z</time></trkpt>
<trkpt lat="50.710923" lon="4.931752"><time>2026-05-10T06:02:09Z</time></trkpt>
</trkseg>
</trk>
<trk>
<name>bojmr13</name>
<cmt>v</cmt>
<desc>Marilles Chemin n°13 </desc>
<link href="https://chemins.be/marilles/chemin/13"/><trkseg>
<trkpt lat="50.703112" lon="4.951160"><time>2026-05-10T02:22:09Z</time></trkpt>
<trkpt lat="50.702816" lon="4.951437"><time>2026-05-10T02:32:09Z</time></trkpt>
</trkseg></trk>
<trk>
<name>bojmr13</name>
<cmt>d</cmt>
<desc>Marilles Chemin n°13 </desc>
<link href="https://chemins.be/marilles/chemin/13"/><trkseg>
<trkpt lat="50.702816" lon="4.951437"><time>2026-05-10T02:32:09Z</time></trkpt>
<trkpt lat="50.699722" lon="4.954488"><time>2026-05-10T02:42:09Z</time></trkpt>
<trkpt lat="50.698211" lon="4.955406"><time>2026-05-10T02:52:09Z</time></trkpt>
<trkpt lat="50.696845" lon="4.956575"><time>2026-05-10T03:02:09Z</time></trkpt>
<trkpt lat="50.695106" lon="4.957409"><time>2026-05-10T03:12:09Z</time></trkpt>
</trkseg></trk>
<trk>
<name>bojmr13</name>
<cmt>v</cmt>
<desc>Marilles Chemin n°13 </desc>
<link href="https://chemins.be/marilles/chemin/13"/><trkseg>
<trkpt lat="50.695106" lon="4.957409"><time>2026-05-10T03:12:09Z</time></trkpt>
<trkpt lat="50.694142" lon="4.957177"><time>2026-05-10T03:22:09Z</time></trkpt>
<trkpt lat="50.693639" lon="4.957331"><time>2026-05-10T03:32:09Z</time></trkpt>
<trkpt lat="50.693236" lon="4.958135"><time>2026-05-10T03:42:09Z</time></trkpt>
</trkseg>
</trk>
<trk>
<name>bojmr14</name>
<cmt>d</cmt>
<desc>Marilles Chemin n°14 </desc>
<link href="https://chemins.be/marilles/chemin/14"/><trkseg>
<trkpt lat="50.699197" lon="4.970562"><time>2026-05-10T02:22:09Z</time></trkpt>
<trkpt lat="50.698789" lon="4.971464"><time>2026-05-10T02:32:09Z</time></trkpt>
</trkseg>
</trk>
<trk>
<name>bojmr16</name>
<cmt>d</cmt>
<desc>Marilles Chemin n°16 </desc>
<link href="https://chemins.be/marilles/chemin/16"/><trkseg>
<trkpt lat="50.703530" lon="4.921765"><time>2026-05-10T02:22:09Z</time></trkpt>
<trkpt lat="50.707375" lon="4.921709"><time>2026-05-10T02:32:09Z</time></trkpt>
<trkpt lat="50.708689" lon="4.921057"><time>2026-05-10T02:42:09Z</time></trkpt>
</trkseg>
</trk>
<trk>
<name>bojmr17</name>
<cmt>d</cmt>
<desc>Marilles Chemin n°17 </desc>
<link href="https://chemins.be/marilles/chemin/17"/><trkseg>
<trkpt lat="50.712462" lon="4.940676"><time>2026-05-10T02:22:09Z</time></trkpt>
<trkpt lat="50.713402" lon="4.939781"><time>2026-05-10T02:32:09Z</time></trkpt>
<trkpt lat="50.714963" lon="4.938568"><time>2026-05-10T02:42:09Z</time></trkpt>
</trkseg>
</trk>
<trk>
<name>bojmr18</name>
<cmt>q</cmt>
<desc>Marilles Sentier n°18 </desc>
<link href="https://chemins.be/marilles/sentier/18"/><trkseg>
<trkpt lat="50.697540" lon="4.957856"><time>2026-05-10T02:22:09Z</time></trkpt>
<trkpt lat="50.697517" lon="4.958927"><time>2026-05-10T02:32:09Z</time></trkpt>
</trkseg></trk>
<trk>
<name>bojmr18</name>
<cmt>d</cmt>
<desc>Marilles Sentier n°18 </desc>
<link href="https://chemins.be/marilles/sentier/18"/><trkseg>
<trkpt lat="50.697517" lon="4.958927"><time>2026-05-10T02:32:09Z</time></trkpt>
<trkpt lat="50.697421" lon="4.963293"><time>2026-05-10T02:42:09Z</time></trkpt>
<trkpt lat="50.697215" lon="4.963868"><time>2026-05-10T02:52:09Z</time></trkpt>
<trkpt lat="50.697117" lon="4.968391"><time>2026-05-10T03:02:09Z</time></trkpt>
</trkseg>
</trk>
<trk>
<name>bojmr19</name>
<cmt>d</cmt>
<desc>Marilles Chemin n°19 </desc>
<link href="https://chemins.be/marilles/chemin/19"/><trkseg>
<trkpt lat="50.709460" lon="4.955409"><time>2026-05-10T02:22:09Z</time></trkpt>
<trkpt lat="50.709481" lon="4.956253"><time>2026-05-10T02:32:09Z</time></trkpt>
<trkpt lat="50.709771" lon="4.957301"><time>2026-05-10T02:42:09Z</time></trkpt>
<trkpt lat="50.710642" lon="4.958717"><time>2026-05-10T02:52:09Z</time></trkpt>
<trkpt lat="50.711350" lon="4.960704"><time>2026-05-10T03:02:09Z</time></trkpt>
<trkpt lat="50.712025" lon="4.959753"><time>2026-05-10T03:12:09Z</time></trkpt>
<trkpt lat="50.714648" lon="4.957936"><time>2026-05-10T03:22:09Z</time></trkpt>
</trkseg>
</trk>
<trk>
<name>bojmr20</name>
<cmt>d</cmt>
<desc>Marilles Sentier n°20 </desc>
<link href="https://chemins.be/marilles/sentier/20"/><trkseg>
<trkpt lat="50.714402" lon="4.957390"><time>2026-05-10T02:22:09Z</time></trkpt>
<trkpt lat="50.714626" lon="4.957966"><time>2026-05-10T02:32:09Z</time></trkpt>
<trkpt lat="50.715099" lon="4.958177"><time>2026-05-10T02:42:09Z</time></trkpt>
<trkpt lat="50.715307" lon="4.958201"><time>2026-05-10T02:52:09Z</time></trkpt>
</trkseg>
</trk>
<trk>
<name>bojmr21</name>
<cmt>r</cmt>
<desc>Marilles Chemin n°21 Chavée Tonwè</desc>
<link href="https://chemins.be/marilles/chemin/21"/><trkseg>
<trkpt lat="50.706118" lon="4.956677"><time>2026-05-10T02:22:09Z</time></trkpt>
<trkpt lat="50.706125" lon="4.957907"><time>2026-05-10T02:32:09Z</time></trkpt>
</trkseg></trk>
<trk>
<name>bojmr21</name>
<cmt>v</cmt>
<desc>Marilles Chemin n°21 Chavée Tonwè</desc>
<link href="https://chemins.be/marilles/chemin/21"/><trkseg>
<trkpt lat="50.706125" lon="4.957907"><time>2026-05-10T02:32:09Z</time></trkpt>
<trkpt lat="50.706179" lon="4.959212"><time>2026-05-10T02:42:09Z</time></trkpt>
<trkpt lat="50.706428" lon="4.959953"><time>2026-05-10T02:52:09Z</time></trkpt>
</trkseg>
</trk>
<trk>
<name>bojmr22</name>
<cmt>v</cmt>
<desc>Marilles Chemin n°22 Rue du Chénia</desc>
<link href="https://chemins.be/marilles/chemin/22"/><trkseg>
<trkpt lat="50.700093" lon="4.946380"><time>2026-05-10T02:22:09Z</time></trkpt>
<trkpt lat="50.700719" lon="4.946879"><time>2026-05-10T02:32:09Z</time></trkpt>
</trkseg></trk>
<trk>
<name>bojmr22</name>
<cmt>q</cmt>
<desc>Marilles Chemin n°22 Rue du Chénia</desc>
<link href="https://chemins.be/marilles/chemin/22"/><trkseg>
<trkpt lat="50.700719" lon="4.946879"><time>2026-05-10T02:32:09Z</time></trkpt>
<trkpt lat="50.701293" lon="4.948150"><time>2026-05-10T02:42:09Z</time></trkpt>
</trkseg></trk>
<trk>
<name>bojmr22</name>
<cmt>d</cmt>
<desc>Marilles Chemin n°22 Rue du Chénia</desc>
<link href="https://chemins.be/marilles/chemin/22"/><trkseg>
<trkpt lat="50.701293" lon="4.948150"><time>2026-05-10T02:42:09Z</time></trkpt>
<trkpt lat="50.702384" lon="4.950864"><time>2026-05-10T02:52:09Z</time></trkpt>
<trkpt lat="50.703077" lon="4.951208"><time>2026-05-10T03:02:09Z</time></trkpt>
</trkseg></trk>
<trk>
<name>bojmr22</name>
<cmt>r</cmt>
<desc>Marilles Chemin n°22 Rue du Chénia</desc>
<link href="https://chemins.be/marilles/chemin/22"/><trkseg>
<trkpt lat="50.703077" lon="4.951208"><time>2026-05-10T03:02:09Z</time></trkpt>
<trkpt lat="50.704133" lon="4.951179"><time>2026-05-10T03:12:09Z</time></trkpt>
</trkseg></trk>
<trk>
<name>bojmr22</name>
<cmt>v</cmt>
<desc>Marilles Chemin n°22 Rue du Chénia</desc>
<link href="https://chemins.be/marilles/chemin/22"/><trkseg>
<trkpt lat="50.704133" lon="4.951179"><time>2026-05-10T03:12:09Z</time></trkpt>
<trkpt lat="50.705462" lon="4.951540"><time>2026-05-10T03:22:09Z</time></trkpt>
<trkpt lat="50.706079" lon="4.952137"><time>2026-05-10T03:32:09Z</time></trkpt>
</trkseg></trk>
<trk>
<name>bojmr22</name>
<cmt>r</cmt>
<desc>Marilles Chemin n°22 Rue du Chénia</desc>
<link href="https://chemins.be/marilles/chemin/22"/><trkseg>
<trkpt lat="50.706079" lon="4.952137"><time>2026-05-10T03:32:09Z</time></trkpt>
<trkpt lat="50.706324" lon="4.951482"><time>2026-05-10T03:42:09Z</time></trkpt>
</trkseg>
</trk>
<trk>
<name>bojmr23</name>
<cmt>v</cmt>
<desc>Marilles Sentier n°23 </desc>
<link href="https://chemins.be/marilles/sentier/23"/><trkseg>
<trkpt lat="50.709125" lon="4.949040"><time>2026-05-10T02:22:09Z</time></trkpt>
<trkpt lat="50.708310" lon="4.948482"><time>2026-05-10T02:32:09Z</time></trkpt>
<trkpt lat="50.706991" lon="4.948640"><time>2026-05-10T02:42:09Z</time></trkpt>
<trkpt lat="50.704881" lon="4.948938"><time>2026-05-10T02:52:09Z</time></trkpt>
</trkseg>
</trk>
<trk>
<name>bojmr24</name>
<cmt>d</cmt>
<desc>Marilles Sentier n°24 </desc>
<link href="https://chemins.be/marilles/sentier/24"/><trkseg>
<trkpt lat="50.707771" lon="4.944366"><time>2026-05-10T02:22:09Z</time></trkpt>
<trkpt lat="50.707234" lon="4.945896"><time>2026-05-10T02:32:09Z</time></trkpt>
<trkpt lat="50.706936" lon="4.946348"><time>2026-05-10T02:42:09Z</time></trkpt>
<trkpt lat="50.706570" lon="4.946670"><time>2026-05-10T02:52:09Z</time></trkpt>
<trkpt lat="50.705244" lon="4.946619"><time>2026-05-10T03:02:09Z</time></trkpt>
<trkpt lat="50.704525" lon="4.946899"><time>2026-05-10T03:12:09Z</time></trkpt>
</trkseg></trk>
<trk>
<name>bojmr24</name>
<cmt>v</cmt>
<desc>Marilles Sentier n°24 </desc>
<link href="https://chemins.be/marilles/sentier/24"/><trkseg>
<trkpt lat="50.704525" lon="4.946899"><time>2026-05-10T03:12:09Z</time></trkpt>
<trkpt lat="50.703847" lon="4.947263"><time>2026-05-10T03:22:09Z</time></trkpt>
</trkseg>
</trk>
<trk>
<name>bojmr25</name>
<cmt>v</cmt>
<desc>Marilles Sentier n°25 </desc>
<link href="https://chemins.be/marilles/sentier/25"/><trkseg>
<trkpt lat="50.709954" lon="4.946267"><time>2026-05-10T02:22:09Z</time></trkpt>
<trkpt lat="50.710098" lon="4.946183"><time>2026-05-10T02:32:09Z</time></trkpt>
<trkpt lat="50.710414" lon="4.945961"><time>2026-05-10T02:42:09Z</time></trkpt>
<trkpt lat="50.710567" lon="4.945934"><time>2026-05-10T02:52:09Z</time></trkpt>
<trkpt lat="50.710674" lon="4.945978"><time>2026-05-10T03:02:09Z</time></trkpt>
<trkpt lat="50.710819" lon="4.945838"><time>2026-05-10T03:12:09Z</time></trkpt>
<trkpt lat="50.710951" lon="4.945687"><time>2026-05-10T03:22:09Z</time></trkpt>
</trkseg></trk>
<trk>
<name>bojmr25</name>
<cmt>b</cmt>
<desc>Marilles Sentier n°25 </desc>
<link href="https://chemins.be/marilles/sentier/25"/><trkseg>
<trkpt lat="50.710951" lon="4.945687"><time>2026-05-10T03:22:09Z</time></trkpt>
<trkpt lat="50.711067" lon="4.945530"><time>2026-05-10T03:32:09Z</time></trkpt>
</trkseg>
</trk>
<trk>
<name>bojmr26</name>
<cmt>v</cmt>
<desc>Marilles Chemin n°26 </desc>
<link href="https://chemins.be/marilles/chemin/26"/><trkseg>
<trkpt lat="50.704409" lon="4.931735"><time>2026-05-10T02:22:09Z</time></trkpt>
<trkpt lat="50.705039" lon="4.929496"><time>2026-05-10T02:32:09Z</time></trkpt>
</trkseg>
</trk>
<trk>
<name>bojmr27</name>
<cmt>v</cmt>
<desc>Marilles Chemin n°27 rue du Village</desc>
<link href="https://chemins.be/marilles/chemin/27"/><trkseg>
<trkpt lat="50.702189" lon="4.940226"><time>2026-05-10T02:22:09Z</time></trkpt>
<trkpt lat="50.701879" lon="4.941128"><time>2026-05-10T02:32:09Z</time></trkpt>
<trkpt lat="50.701788" lon="4.941382"><time>2026-05-10T02:42:09Z</time></trkpt>
</trkseg>
</trk>
<trk>
<name>bojmr28</name>
<cmt>v</cmt>
<desc>Marilles Chemin n°28 </desc>
<link href="https://chemins.be/marilles/chemin/28"/><trkseg>
<trkpt lat="50.701267" lon="4.948109"><time>2026-05-10T02:22:09Z</time></trkpt>
<trkpt lat="50.701450" lon="4.946551"><time>2026-05-10T02:32:09Z</time></trkpt>
<trkpt lat="50.701917" lon="4.944229"><time>2026-05-10T02:42:09Z</time></trkpt>
</trkseg>
</trk>
<trk>
<name>bojmr30</name>
<cmt>s</cmt>
<desc>Marilles Chemin n°30 </desc>
<link href="https://chemins.be/marilles/chemin/30"/><trkseg>
<trkpt lat="50.710598" lon="4.932132"><time>2026-05-10T02:22:09Z</time></trkpt>
<trkpt lat="50.710374" lon="4.932100"><time>2026-05-10T02:32:09Z</time></trkpt>
<trkpt lat="50.708071" lon="4.935726"><time>2026-05-10T02:42:09Z</time></trkpt>
</trkseg>
</trk>
<trk>
<name>bojmr33</name>
<cmt>v</cmt>
<desc>Marilles Chemin n°33 </desc>
<link href="https://chemins.be/marilles/chemin/33"/><trkseg>
<trkpt lat="50.694281" lon="4.963999"><time>2026-05-10T02:22:09Z</time></trkpt>
<trkpt lat="50.695336" lon="4.965393"><time>2026-05-10T02:32:09Z</time></trkpt>
<trkpt lat="50.696385" lon="4.967071"><time>2026-05-10T02:42:09Z</time></trkpt>
<trkpt lat="50.697211" lon="4.968616"><time>2026-05-10T02:52:09Z</time></trkpt>
<trkpt lat="50.698231" lon="4.970812"><time>2026-05-10T03:02:09Z</time></trkpt>
<trkpt lat="50.698748" lon="4.971375"><time>2026-05-10T03:12:09Z</time></trkpt>
</trkseg>
</trk>
<trk>
<name>bojmr34</name>
<cmt>q</cmt>
<desc>Marilles Sentier n°34 </desc>
<link href="https://chemins.be/marilles/sentier/34"/><trkseg>
<trkpt lat="50.706549" lon="4.950317"><time>2026-05-10T02:22:09Z</time></trkpt>
<trkpt lat="50.706959" lon="4.948705"><time>2026-05-10T02:32:09Z</time></trkpt>
<trkpt lat="50.707242" lon="4.947592"><time>2026-05-10T02:42:09Z</time></trkpt>
<trkpt lat="50.706916" lon="4.946262"><time>2026-05-10T02:52:09Z</time></trkpt>
<trkpt lat="50.706787" lon="4.943354"><time>2026-05-10T03:02:09Z</time></trkpt>
</trkseg>
</trk>
<trk>
<name>bojmr35</name>
<cmt>s</cmt>
<desc>Marilles Sentier n°35 </desc>
<link href="https://chemins.be/marilles/sentier/35"/><trkseg>
<trkpt lat="50.707725" lon="4.944585"><time>2026-05-10T02:22:09Z</time></trkpt>
<trkpt lat="50.708125" lon="4.945924"><time>2026-05-10T02:32:09Z</time></trkpt>
<trkpt lat="50.708516" lon="4.946318"><time>2026-05-10T02:42:09Z</time></trkpt>
<trkpt lat="50.708625" lon="4.946988"><time>2026-05-10T02:52:09Z</time></trkpt>
<trkpt lat="50.709565" lon="4.947537"><time>2026-05-10T03:02:09Z</time></trkpt>
</trkseg></trk>
<trk>
<name>bojmr35</name>
<cmt>r</cmt>
<desc>Marilles Sentier n°35 </desc>
<link href="https://chemins.be/marilles/sentier/35"/><trkseg>
<trkpt lat="50.709565" lon="4.947537"><time>2026-05-10T03:02:09Z</time></trkpt>
<trkpt lat="50.709489" lon="4.948130"><time>2026-05-10T03:12:09Z</time></trkpt>
</trkseg></trk>
<trk>
<name>bojmr35</name>
<cmt>v</cmt>
<desc>Marilles Sentier n°35 </desc>
<link href="https://chemins.be/marilles/sentier/35"/><trkseg>
<trkpt lat="50.709489" lon="4.948130"><time>2026-05-10T03:12:09Z</time></trkpt>
<trkpt lat="50.710490" lon="4.949094"><time>2026-05-10T03:22:09Z</time></trkpt>
<trkpt lat="50.711563" lon="4.950242"><time>2026-05-10T03:32:09Z</time></trkpt>
<trkpt lat="50.712735" lon="4.952699"><time>2026-05-10T03:42:09Z</time></trkpt>
</trkseg></trk>
<trk>
<name>bojmr35</name>
<cmt>s</cmt>
<desc>Marilles Sentier n°35 </desc>
<link href="https://chemins.be/marilles/sentier/35"/><trkseg>
<trkpt lat="50.712735" lon="4.952699"><time>2026-05-10T03:42:09Z</time></trkpt>
<trkpt lat="50.713316" lon="4.954770"><time>2026-05-10T03:52:09Z</time></trkpt>
<trkpt lat="50.714450" lon="4.957334"><time>2026-05-10T04:02:09Z</time></trkpt>
</trkseg>
</trk>
<trk>
<name>bojmr36</name>
<cmt>s</cmt>
<desc>Marilles Sentier n°36 </desc>
<link href="https://chemins.be/marilles/sentier/36"/><trkseg>
<trkpt lat="50.707350" lon="4.950907"><time>2026-05-10T02:22:09Z</time></trkpt>
<trkpt lat="50.707925" lon="4.949266"><time>2026-05-10T02:32:09Z</time></trkpt>
<trkpt lat="50.708030" lon="4.949330"><time>2026-05-10T02:42:09Z</time></trkpt>
<trkpt lat="50.708296" lon="4.948515"><time>2026-05-10T02:52:09Z</time></trkpt>
<trkpt lat="50.708567" lon="4.947689"><time>2026-05-10T03:02:09Z</time></trkpt>
<trkpt lat="50.709745" lon="4.945387"><time>2026-05-10T03:12:09Z</time></trkpt>
</trkseg>
</trk>
<trk>
<name>bojmr37</name>
<cmt>d</cmt>
<desc>Marilles Sentier n°37 </desc>
<link href="https://chemins.be/marilles/sentier/37"/><trkseg>
<trkpt lat="50.711657" lon="4.945607"><time>2026-05-10T02:22:09Z</time></trkpt>
<trkpt lat="50.711255" lon="4.946006"><time>2026-05-10T02:32:09Z</time></trkpt>
</trkseg></trk>
<trk>
<name>bojmr37</name>
<cmt>s</cmt>
<desc>Marilles Sentier n°37 </desc>
<link href="https://chemins.be/marilles/sentier/37"/><trkseg>
<trkpt lat="50.711255" lon="4.946006"><time>2026-05-10T02:32:09Z</time></trkpt>
<trkpt lat="50.710877" lon="4.946310"><time>2026-05-10T02:42:09Z</time></trkpt>
<trkpt lat="50.710679" lon="4.946001"><time>2026-05-10T02:52:09Z</time></trkpt>
</trkseg>
</trk>
<trk>
<name>bojmr37bis</name>
<cmt>b</cmt>
<desc>Marilles Sentier n°37bis </desc>
<link href="https://chemins.be/marilles/sentier/37bis"/><trkseg>
<trkpt lat="50.711264" lon="4.946004"><time>2026-05-10T02:22:09Z</time></trkpt>
<trkpt lat="50.711176" lon="4.945800"><time>2026-05-10T02:32:09Z</time></trkpt>
<trkpt lat="50.711074" lon="4.945545"><time>2026-05-10T02:42:09Z</time></trkpt>
</trkseg>
</trk>
<trk>
<name>bojmr38</name>
<cmt>q</cmt>
<desc>Marilles Sentier n°38 </desc>
<link href="https://chemins.be/marilles/sentier/38"/><trkseg>
<trkpt lat="50.712125" lon="4.946697"><time>2026-05-10T02:22:09Z</time></trkpt>
<trkpt lat="50.712800" lon="4.945678"><time>2026-05-10T02:32:09Z</time></trkpt>
<trkpt lat="50.713785" lon="4.943500"><time>2026-05-10T02:42:09Z</time></trkpt>
</trkseg>
</trk>
<trk>
<name>bojmr39</name>
<cmt>q</cmt>
<desc>Marilles Sentier n°39 </desc>
<link href="https://chemins.be/marilles/sentier/39"/><trkseg>
<trkpt lat="50.707176" lon="4.953829"><time>2026-05-10T02:22:09Z</time></trkpt>
<trkpt lat="50.706920" lon="4.953984"><time>2026-05-10T02:32:09Z</time></trkpt>
<trkpt lat="50.706882" lon="4.955881"><time>2026-05-10T02:42:09Z</time></trkpt>
<trkpt lat="50.706698" lon="4.956265"><time>2026-05-10T02:52:09Z</time></trkpt>
<trkpt lat="50.706134" lon="4.956299"><time>2026-05-10T03:02:09Z</time></trkpt>
</trkseg>
</trk>
<trk>
<name>bojmr3bis</name>
<cmt>d</cmt>
<desc>Marilles Chemin n°3bis </desc>
<link href="https://chemins.be/marilles/chemin/3bis"/><trkseg>
<trkpt lat="50.700892" lon="4.931419"><time>2026-05-10T02:22:09Z</time></trkpt>
<trkpt lat="50.700123" lon="4.930504"><time>2026-05-10T02:32:09Z</time></trkpt>
<trkpt lat="50.698931" lon="4.929754"><time>2026-05-10T02:42:09Z</time></trkpt>
</trkseg>
</trk>
<trk>
<name>bojmr4</name>
<cmt>v</cmt>
<desc>Marilles Chemin n°4 </desc>
<link href="https://chemins.be/marilles/chemin/4"/><trkseg>
<trkpt lat="50.700889" lon="4.924740"><time>2026-05-10T02:22:09Z</time></trkpt>
<trkpt lat="50.702084" lon="4.924342"><time>2026-05-10T02:32:09Z</time></trkpt>
<trkpt lat="50.702792" lon="4.924360"><time>2026-05-10T02:42:09Z</time></trkpt>
</trkseg></trk>
<trk>
<name>bojmr4</name>
<cmt>r</cmt>
<desc>Marilles Chemin n°4 </desc>
<link href="https://chemins.be/marilles/chemin/4"/><trkseg>
<trkpt lat="50.702792" lon="4.924360"><time>2026-05-10T02:42:09Z</time></trkpt>
<trkpt lat="50.703391" lon="4.922068"><time>2026-05-10T02:52:09Z</time></trkpt>
</trkseg></trk>
<trk>
<name>bojmr4</name>
<cmt>d</cmt>
<desc>Marilles Chemin n°4 </desc>
<link href="https://chemins.be/marilles/chemin/4"/><trkseg>
<trkpt lat="50.703391" lon="4.922068"><time>2026-05-10T02:52:09Z</time></trkpt>
<trkpt lat="50.703454" lon="4.921715"><time>2026-05-10T03:02:09Z</time></trkpt>
</trkseg></trk>
<trk>
<name>bojmr4</name>
<cmt>q</cmt>
<desc>Marilles Chemin n°4 </desc>
<link href="https://chemins.be/marilles/chemin/4"/><trkseg>
<trkpt lat="50.703454" lon="4.921715"><time>2026-05-10T03:02:09Z</time></trkpt>
<trkpt lat="50.703572" lon="4.920913"><time>2026-05-10T03:12:09Z</time></trkpt>
</trkseg>
</trk>
<trk>
<name>bojmr40</name>
<cmt>s</cmt>
<desc>Marilles Sentier n°40 </desc>
<link href="https://chemins.be/marilles/sentier/40"/><trkseg>
<trkpt lat="50.703688" lon="4.948804"><time>2026-05-10T02:22:09Z</time></trkpt>
<trkpt lat="50.704099" lon="4.951378"><time>2026-05-10T02:32:09Z</time></trkpt>
<trkpt lat="50.704171" lon="4.951830"><time>2026-05-10T02:42:09Z</time></trkpt>
<trkpt lat="50.705367" lon="4.954877"><time>2026-05-10T02:52:09Z</time></trkpt>
</trkseg></trk>
<trk>
<name>bojmr40</name>
<cmt>q</cmt>
<desc>Marilles Sentier n°40 </desc>
<link href="https://chemins.be/marilles/sentier/40"/><trkseg>
<trkpt lat="50.705367" lon="4.954877"><time>2026-05-10T02:52:09Z</time></trkpt>
<trkpt lat="50.705706" lon="4.955327"><time>2026-05-10T03:02:09Z</time></trkpt>
<trkpt lat="50.706178" lon="4.955527"><time>2026-05-10T03:12:09Z</time></trkpt>
<trkpt lat="50.706187" lon="4.955615"><time>2026-05-10T03:22:09Z</time></trkpt>
<trkpt lat="50.706868" lon="4.955894"><time>2026-05-10T03:32:09Z</time></trkpt>
<trkpt lat="50.707106" lon="4.955780"><time>2026-05-10T03:42:09Z</time></trkpt>
</trkseg>
</trk>
<trk>
<name>bojmr41</name>
<cmt>s</cmt>
<desc>Marilles Sentier n°41 </desc>
<link href="https://chemins.be/marilles/sentier/41"/><trkseg>
<trkpt lat="50.706230" lon="4.951283"><time>2026-05-10T02:22:09Z</time></trkpt>
<trkpt lat="50.706461" lon="4.950306"><time>2026-05-10T02:32:09Z</time></trkpt>
<trkpt lat="50.706542" lon="4.950349"><time>2026-05-10T02:42:09Z</time></trkpt>
<trkpt lat="50.707921" lon="4.949309"><time>2026-05-10T02:52:09Z</time></trkpt>
</trkseg>
</trk>
<trk>
<name>bojmr42</name>
<cmt>v</cmt>
<desc>Marilles Sentier n°42 </desc>
<link href="https://chemins.be/marilles/sentier/42"/><trkseg>
<trkpt lat="50.706110" lon="4.952177"><time>2026-05-10T02:22:09Z</time></trkpt>
<trkpt lat="50.705319" lon="4.954877"><time>2026-05-10T02:32:09Z</time></trkpt>
<trkpt lat="50.705149" lon="4.956197"><time>2026-05-10T02:42:09Z</time></trkpt>
<trkpt lat="50.705258" lon="4.957355"><time>2026-05-10T02:52:09Z</time></trkpt>
</trkseg>
</trk>
<trk>
<name>bojmr42bis</name>
<cmt>q</cmt>
<desc>Marilles Sentier n°42bis </desc>
<link href="https://chemins.be/marilles/sentier/42bis"/><trkseg>
<trkpt lat="50.705198" lon="4.956882"><time>2026-05-10T02:22:09Z</time></trkpt>
<trkpt lat="50.704668" lon="4.958445"><time>2026-05-10T02:32:09Z</time></trkpt>
<trkpt lat="50.704706" lon="4.958620"><time>2026-05-10T02:42:09Z</time></trkpt>
</trkseg>
</trk>
<trk>
<name>bojmr43</name>
<cmt>q</cmt>
<desc>Marilles Sentier n°43 Rue Haute</desc>
<link href="https://chemins.be/marilles/sentier/43"/><trkseg>
<trkpt lat="50.706353" lon="4.942310"><time>2026-05-10T02:22:09Z</time></trkpt>
<trkpt lat="50.707690" lon="4.942508"><time>2026-05-10T02:32:09Z</time></trkpt>
<trkpt lat="50.708141" lon="4.943040"><time>2026-05-10T02:42:09Z</time></trkpt>
<trkpt lat="50.708837" lon="4.942825"><time>2026-05-10T02:52:09Z</time></trkpt>
<trkpt lat="50.709684" lon="4.942718"><time>2026-05-10T03:02:09Z</time></trkpt>
<trkpt lat="50.710418" lon="4.941770"><time>2026-05-10T03:12:09Z</time></trkpt>
</trkseg></trk>
<trk>
<name>bojmr43</name>
<cmt>v</cmt>
<desc>Marilles Sentier n°43 Rue Haute</desc>
<link href="https://chemins.be/marilles/sentier/43"/><trkseg>
<trkpt lat="50.710418" lon="4.941770"><time>2026-05-10T03:12:09Z</time></trkpt>
<trkpt lat="50.710690" lon="4.942976"><time>2026-05-10T03:22:09Z</time></trkpt>
<trkpt lat="50.711737" lon="4.941970"><time>2026-05-10T03:32:09Z</time></trkpt>
<trkpt lat="50.712463" lon="4.940605"><time>2026-05-10T03:42:09Z</time></trkpt>
</trkseg>
</trk>
<trk>
<name>bojmr44</name>
<cmt>q</cmt>
<desc>Marilles Sentier n°44 </desc>
<link href="https://chemins.be/marilles/sentier/44"/><trkseg>
<trkpt lat="50.708105" lon="4.951487"><time>2026-05-10T02:22:09Z</time></trkpt>
<trkpt lat="50.707324" lon="4.950903"><time>2026-05-10T02:32:09Z</time></trkpt>
<trkpt lat="50.706550" lon="4.950324"><time>2026-05-10T02:42:09Z</time></trkpt>
</trkseg></trk>
<trk>
<name>bojmr44</name>
<cmt>s</cmt>
<desc>Marilles Sentier n°44 </desc>
<link href="https://chemins.be/marilles/sentier/44"/><trkseg>
<trkpt lat="50.706550" lon="4.950324"><time>2026-05-10T02:42:09Z</time></trkpt>
<trkpt lat="50.705006" lon="4.949169"><time>2026-05-10T02:52:09Z</time></trkpt>
</trkseg>
</trk>
<trk>
<name>bojmr45</name>
<cmt>s</cmt>
<desc>Marilles Sentier n°45 </desc>
<link href="https://chemins.be/marilles/sentier/45"/><trkseg>
<trkpt lat="50.702792" lon="4.940937"><time>2026-05-10T02:22:09Z</time></trkpt>
<trkpt lat="50.703053" lon="4.940276"><time>2026-05-10T02:32:09Z</time></trkpt>
<trkpt lat="50.704309" lon="4.937933"><time>2026-05-10T02:42:09Z</time></trkpt>
</trkseg>
</trk>
<trk>
<name>bojmr46</name>
<cmt>s</cmt>
<desc>Marilles Sentier n°46 </desc>
<link href="https://chemins.be/marilles/sentier/46"/><trkseg>
<trkpt lat="50.702139" lon="4.938108"><time>2026-05-10T02:22:09Z</time></trkpt>
<trkpt lat="50.703111" lon="4.940339"><time>2026-05-10T02:32:09Z</time></trkpt>
<trkpt lat="50.703559" lon="4.940854"><time>2026-05-10T02:42:09Z</time></trkpt>
<trkpt lat="50.703858" lon="4.941262"><time>2026-05-10T02:52:09Z</time></trkpt>
<trkpt lat="50.703668" lon="4.941895"><time>2026-05-10T03:02:09Z</time></trkpt>
<trkpt lat="50.704021" lon="4.944974"><time>2026-05-10T03:12:09Z</time></trkpt>
<trkpt lat="50.704164" lon="4.945618"><time>2026-05-10T03:22:09Z</time></trkpt>
</trkseg>
</trk>
<trk>
<name>bojmr47</name>
<cmt>d</cmt>
<desc>Marilles Chemin n°47 </desc>
<link href="https://chemins.be/marilles/chemin/47"/><trkseg>
<trkpt lat="50.701914" lon="4.944186"><time>2026-05-10T02:22:09Z</time></trkpt>
<trkpt lat="50.701310" lon="4.942594"><time>2026-05-10T02:32:09Z</time></trkpt>
<trkpt lat="50.700483" lon="4.941082"><time>2026-05-10T02:42:09Z</time></trkpt>
</trkseg></trk>
<trk>
<name>bojmr47</name>
<cmt>s</cmt>
<desc>Marilles Chemin n°47 </desc>
<link href="https://chemins.be/marilles/chemin/47"/><trkseg>
<trkpt lat="50.700483" lon="4.941082"><time>2026-05-10T02:42:09Z</time></trkpt>
<trkpt lat="50.699896" lon="4.939554"><time>2026-05-10T02:52:09Z</time></trkpt>
<trkpt lat="50.698602" lon="4.937940"><time>2026-05-10T03:02:09Z</time></trkpt>
<trkpt lat="50.698787" lon="4.937202"><time>2026-05-10T03:12:09Z</time></trkpt>
<trkpt lat="50.698091" lon="4.934662"><time>2026-05-10T03:22:09Z</time></trkpt>
</trkseg>
</trk>
<trk>
<name>bojmr49</name>
<cmt>s</cmt>
<desc>Marilles Sentier n°49 Sentier de Nodrenge / rue du Village / Rue du Village</desc>
<link href="https://chemins.be/marilles/sentier/49"/><trkseg>
<trkpt lat="50.702445" lon="4.946879"><time>2026-05-10T02:22:09Z</time></trkpt>
<trkpt lat="50.702088" lon="4.945693"><time>2026-05-10T02:32:09Z</time></trkpt>
<trkpt lat="50.701978" lon="4.944199"><time>2026-05-10T02:42:09Z</time></trkpt>
<trkpt lat="50.701786" lon="4.941487"><time>2026-05-10T02:52:09Z</time></trkpt>
<trkpt lat="50.701332" lon="4.940628"><time>2026-05-10T03:02:09Z</time></trkpt>
<trkpt lat="50.701423" lon="4.939461"><time>2026-05-10T03:12:09Z</time></trkpt>
</trkseg></trk>
<trk>
<name>bojmr49</name>
<cmt>v</cmt>
<desc>Marilles Sentier n°49 Sentier de Nodrenge / rue du Village / Rue du Village</desc>
<link href="https://chemins.be/marilles/sentier/49"/><trkseg>
<trkpt lat="50.701423" lon="4.939461"><time>2026-05-10T03:12:09Z</time></trkpt>
<trkpt lat="50.700903" lon="4.938835"><time>2026-05-10T03:22:09Z</time></trkpt>
<trkpt lat="50.700618" lon="4.938285"><time>2026-05-10T03:32:09Z</time></trkpt>
</trkseg></trk>
<trk>
<name>bojmr49</name>
<cmt>q</cmt>
<desc>Marilles Sentier n°49 Sentier de Nodrenge / rue du Village / Rue du Village</desc>
<link href="https://chemins.be/marilles/sentier/49"/><trkseg>
<trkpt lat="50.700618" lon="4.938285"><time>2026-05-10T03:32:09Z</time></trkpt>
<trkpt lat="50.699796" lon="4.936972"><time>2026-05-10T03:42:09Z</time></trkpt>
</trkseg></trk>
<trk>
<name>bojmr49</name>
<cmt>d</cmt>
<desc>Marilles Sentier n°49 Sentier de Nodrenge / rue du Village / Rue du Village</desc>
<link href="https://chemins.be/marilles/sentier/49"/><trkseg>
<trkpt lat="50.699796" lon="4.936972"><time>2026-05-10T03:42:09Z</time></trkpt>
<trkpt lat="50.699987" lon="4.935642"><time>2026-05-10T03:52:09Z</time></trkpt>
<trkpt lat="50.700663" lon="4.934500"><time>2026-05-10T04:02:09Z</time></trkpt>
</trkseg></trk>
<trk>
<name>bojmr49</name>
<cmt>s</cmt>
<desc>Marilles Sentier n°49 Sentier de Nodrenge / rue du Village / Rue du Village</desc>
<link href="https://chemins.be/marilles/sentier/49"/><trkseg>
<trkpt lat="50.700663" lon="4.934500"><time>2026-05-10T04:02:09Z</time></trkpt>
<trkpt lat="50.698155" lon="4.931710"><time>2026-05-10T04:12:09Z</time></trkpt>
</trkseg>
</trk>
<trk>
<name>bojmr49bis</name>
<cmt>q</cmt>
<desc>Marilles Sentier n°49bis </desc>
<link href="https://chemins.be/marilles/sentier/49bis"/><trkseg>
<trkpt lat="50.701031" lon="4.933880"><time>2026-05-10T02:22:09Z</time></trkpt>
<trkpt lat="50.700657" lon="4.934491"><time>2026-05-10T02:32:09Z</time></trkpt>
</trkseg>
</trk>
<trk>
<name>bojmr5</name>
<cmt>v</cmt>
<desc>Marilles Chemin n°5 Ruelle des Chats / Rue du Village / Ruelle des chats / Rue Brou de Gentissart</desc>
<link href="https://chemins.be/marilles/chemin/5"/><trkseg>
<trkpt lat="50.692503" lon="4.966042"><time>2026-05-10T02:22:09Z</time></trkpt>
<trkpt lat="50.694302" lon="4.964046"><time>2026-05-10T02:32:09Z</time></trkpt>
<trkpt lat="50.696934" lon="4.958804"><time>2026-05-10T02:42:09Z</time></trkpt>
<trkpt lat="50.697491" lon="4.957817"><time>2026-05-10T02:52:09Z</time></trkpt>
<trkpt lat="50.698207" lon="4.955406"><time>2026-05-10T03:02:09Z</time></trkpt>
<trkpt lat="50.698660" lon="4.953697"><time>2026-05-10T03:12:09Z</time></trkpt>
<trkpt lat="50.699462" lon="4.951122"><time>2026-05-10T03:22:09Z</time></trkpt>
<trkpt lat="50.699851" lon="4.948602"><time>2026-05-10T03:32:09Z</time></trkpt>
<trkpt lat="50.699883" lon="4.947753"><time>2026-05-10T03:42:09Z</time></trkpt>
<trkpt lat="50.700212" lon="4.945783"><time>2026-05-10T03:52:09Z</time></trkpt>
</trkseg></trk>
<trk>
<name>bojmr5</name>
<cmt>r</cmt>
<desc>Marilles Chemin n°5 Ruelle des Chats / Rue du Village / Ruelle des chats / Rue Brou de Gentissart</desc>
<link href="https://chemins.be/marilles/chemin/5"/><trkseg>
<trkpt lat="50.700212" lon="4.945783"><time>2026-05-10T03:52:09Z</time></trkpt>
<trkpt lat="50.700447" lon="4.944373"><time>2026-05-10T04:02:09Z</time></trkpt>
<trkpt lat="50.700461" lon="4.941155"><time>2026-05-10T04:12:09Z</time></trkpt>
<trkpt lat="50.700773" lon="4.940404"><time>2026-05-10T04:22:09Z</time></trkpt>
<trkpt lat="50.701419" lon="4.939481"><time>2026-05-10T04:32:09Z</time></trkpt>
</trkseg></trk>
<trk>
<name>bojmr5</name>
<cmt>v</cmt>
<desc>Marilles Chemin n°5 Ruelle des Chats / Rue du Village / Ruelle des chats / Rue Brou de Gentissart</desc>
<link href="https://chemins.be/marilles/chemin/5"/><trkseg>
<trkpt lat="50.701419" lon="4.939481"><time>2026-05-10T04:32:09Z</time></trkpt>
<trkpt lat="50.701601" lon="4.939030"><time>2026-05-10T04:42:09Z</time></trkpt>
<trkpt lat="50.702082" lon="4.938129"><time>2026-05-10T04:52:09Z</time></trkpt>
<trkpt lat="50.701508" lon="4.936126"><time>2026-05-10T05:02:09Z</time></trkpt>
<trkpt lat="50.701216" lon="4.935174"><time>2026-05-10T05:12:09Z</time></trkpt>
<trkpt lat="50.701075" lon="4.934522"><time>2026-05-10T05:22:09Z</time></trkpt>
<trkpt lat="50.701033" lon="4.933898"><time>2026-05-10T05:32:09Z</time></trkpt>
<trkpt lat="50.701011" lon="4.932964"><time>2026-05-10T05:42:09Z</time></trkpt>
<trkpt lat="50.700864" lon="4.931645"><time>2026-05-10T05:52:09Z</time></trkpt>
<trkpt lat="50.701021" lon="4.931209"><time>2026-05-10T06:02:09Z</time></trkpt>
<trkpt lat="50.701745" lon="4.928430"><time>2026-05-10T06:12:09Z</time></trkpt>
<trkpt lat="50.701833" lon="4.927229"><time>2026-05-10T06:22:09Z</time></trkpt>
<trkpt lat="50.702581" lon="4.924675"><time>2026-05-10T06:32:09Z</time></trkpt>
</trkseg>
</trk>
<trk>
<name>bojmr50</name>
<cmt>v</cmt>
<desc>Marilles Sentier n°50 </desc>
<link href="https://chemins.be/marilles/sentier/50"/><trkseg>
<trkpt lat="50.702082" lon="4.938101"><time>2026-05-10T02:22:09Z</time></trkpt>
<trkpt lat="50.702463" lon="4.937384"><time>2026-05-10T02:32:09Z</time></trkpt>
<trkpt lat="50.702781" lon="4.936751"><time>2026-05-10T02:42:09Z</time></trkpt>
<trkpt lat="50.702863" lon="4.936596"><time>2026-05-10T02:52:09Z</time></trkpt>
<trkpt lat="50.702863" lon="4.936511"><time>2026-05-10T03:02:09Z</time></trkpt>
<trkpt lat="50.702846" lon="4.936440"><time>2026-05-10T03:12:09Z</time></trkpt>
<trkpt lat="50.703437" lon="4.935350"><time>2026-05-10T03:22:09Z</time></trkpt>
</trkseg></trk>
<trk>
<name>bojmr50</name>
<cmt>r</cmt>
<desc>Marilles Sentier n°50 </desc>
<link href="https://chemins.be/marilles/sentier/50"/><trkseg>
<trkpt lat="50.703437" lon="4.935350"><time>2026-05-10T03:22:09Z</time></trkpt>
<trkpt lat="50.702462" lon="4.933563"><time>2026-05-10T03:32:09Z</time></trkpt>
</trkseg></trk>
<trk>
<name>bojmr50</name>
<cmt>s</cmt>
<desc>Marilles Sentier n°50 </desc>
<link href="https://chemins.be/marilles/sentier/50"/><trkseg>
<trkpt lat="50.702462" lon="4.933563"><time>2026-05-10T03:32:09Z</time></trkpt>
<trkpt lat="50.703512" lon="4.930812"><time>2026-05-10T03:42:09Z</time></trkpt>
</trkseg></trk>
<trk>
<name>bojmr50</name>
<cmt>q</cmt>
<desc>Marilles Sentier n°50 </desc>
<link href="https://chemins.be/marilles/sentier/50"/><trkseg>
<trkpt lat="50.703512" lon="4.930812"><time>2026-05-10T03:42:09Z</time></trkpt>
<trkpt lat="50.703838" lon="4.929965"><time>2026-05-10T03:52:09Z</time></trkpt>
<trkpt lat="50.703643" lon="4.924357"><time>2026-05-10T04:02:09Z</time></trkpt>
<trkpt lat="50.702780" lon="4.924289"><time>2026-05-10T04:12:09Z</time></trkpt>
</trkseg>
</trk>
<trk>
<name>bojmr51</name>
<cmt>s</cmt>
<desc>Marilles Sentier n°51 </desc>
<link href="https://chemins.be/marilles/sentier/51"/><trkseg>
<trkpt lat="50.704554" lon="4.938293"><time>2026-05-10T02:22:09Z</time></trkpt>
<trkpt lat="50.705179" lon="4.937435"><time>2026-05-10T02:32:09Z</time></trkpt>
<trkpt lat="50.706788" lon="4.936980"><time>2026-05-10T02:42:09Z</time></trkpt>
</trkseg>
</trk>
<trk>
<name>bojmr52</name>
<cmt>v</cmt>
<desc>Marilles Sentier n°52 </desc>
<link href="https://chemins.be/marilles/sentier/52"/><trkseg>
<trkpt lat="50.703199" lon="4.934900"><time>2026-05-10T02:22:09Z</time></trkpt>
<trkpt lat="50.703749" lon="4.933730"><time>2026-05-10T02:32:09Z</time></trkpt>
<trkpt lat="50.704422" lon="4.931810"><time>2026-05-10T02:42:09Z</time></trkpt>
<trkpt lat="50.705088" lon="4.929321"><time>2026-05-10T02:52:09Z</time></trkpt>
</trkseg></trk>
<trk>
<name>bojmr52</name>
<cmt>q</cmt>
<desc>Marilles Sentier n°52 </desc>
<link href="https://chemins.be/marilles/sentier/52"/><trkseg>
<trkpt lat="50.705088" lon="4.929321"><time>2026-05-10T02:52:09Z</time></trkpt>
<trkpt lat="50.705197" lon="4.927776"><time>2026-05-10T03:02:09Z</time></trkpt>
<trkpt lat="50.705754" lon="4.925394"><time>2026-05-10T03:12:09Z</time></trkpt>
</trkseg>
</trk>
<trk>
<name>bojmr53</name>
<cmt>q</cmt>
<desc>Marilles Sentier n°53 </desc>
<link href="https://chemins.be/marilles/sentier/53"/><trkseg>
<trkpt lat="50.704096" lon="4.945704"><time>2026-05-10T02:22:09Z</time></trkpt>
<trkpt lat="50.702506" lon="4.944867"><time>2026-05-10T02:32:09Z</time></trkpt>
<trkpt lat="50.701799" lon="4.944851"><time>2026-05-10T02:42:09Z</time></trkpt>
</trkseg></trk>
<trk>
<name>bojmr53</name>
<cmt>s</cmt>
<desc>Marilles Sentier n°53 </desc>
<link href="https://chemins.be/marilles/sentier/53"/><trkseg>
<trkpt lat="50.701799" lon="4.944851"><time>2026-05-10T02:42:09Z</time></trkpt>
<trkpt lat="50.700474" lon="4.945913"><time>2026-05-10T02:52:09Z</time></trkpt>
</trkseg>
</trk>
<trk>
<name>bojmr54</name>
<cmt>s</cmt>
<desc>Marilles Sentier n°54 </desc>
<link href="https://chemins.be/marilles/sentier/54"/><trkseg>
<trkpt lat="50.705514" lon="4.940627"><time>2026-05-10T02:22:09Z</time></trkpt>
<trkpt lat="50.703983" lon="4.940942"><time>2026-05-10T02:32:09Z</time></trkpt>
<trkpt lat="50.703675" lon="4.941843"><time>2026-05-10T02:42:09Z</time></trkpt>
<trkpt lat="50.702665" lon="4.943955"><time>2026-05-10T02:52:09Z</time></trkpt>
<trkpt lat="50.702485" lon="4.944888"><time>2026-05-10T03:02:09Z</time></trkpt>
</trkseg>
</trk>
<trk>
<name>bojmr55</name>
<cmt>d</cmt>
<desc>Marilles Sentier n°55 </desc>
<link href="https://chemins.be/marilles/sentier/55"/><trkseg>
<trkpt lat="50.701264" lon="4.948147"><time>2026-05-10T02:22:09Z</time></trkpt>
<trkpt lat="50.701134" lon="4.949185"><time>2026-05-10T02:32:09Z</time></trkpt>
<trkpt lat="50.701281" lon="4.952773"><time>2026-05-10T02:42:09Z</time></trkpt>
<trkpt lat="50.701205" lon="4.954189"><time>2026-05-10T02:52:09Z</time></trkpt>
<trkpt lat="50.701520" lon="4.954738"><time>2026-05-10T03:02:09Z</time></trkpt>
</trkseg>
</trk>
<trk>
<name>bojmr56</name>
<cmt>v</cmt>
<desc>Marilles Chemin n°56 Rue Warichet</desc>
<link href="https://chemins.be/marilles/chemin/56"/><trkseg>
<trkpt lat="50.709290" lon="4.974102"><time>2026-05-10T02:22:09Z</time></trkpt>
<trkpt lat="50.710121" lon="4.972292"><time>2026-05-10T02:32:09Z</time></trkpt>
<trkpt lat="50.713844" lon="4.962378"><time>2026-05-10T02:42:09Z</time></trkpt>
<trkpt lat="50.714575" lon="4.960079"><time>2026-05-10T02:52:09Z</time></trkpt>
<trkpt lat="50.715504" lon="4.958315"><time>2026-05-10T03:02:09Z</time></trkpt>
<trkpt lat="50.716405" lon="4.957994"><time>2026-05-10T03:12:09Z</time></trkpt>
<trkpt lat="50.717650" lon="4.954941"><time>2026-05-10T03:22:09Z</time></trkpt>
</trkseg>
</trk>
<trk>
<name>bojmr57</name>
<cmt>d</cmt>
<desc>Marilles Sentier n°57 </desc>
<link href="https://chemins.be/marilles/sentier/57"/><trkseg>
<trkpt lat="50.707650" lon="4.952350"><time>2026-05-10T02:22:09Z</time></trkpt>
<trkpt lat="50.708424" lon="4.952758"><time>2026-05-10T02:32:09Z</time></trkpt>
<trkpt lat="50.708393" lon="4.952973"><time>2026-05-10T02:42:09Z</time></trkpt>
<trkpt lat="50.709113" lon="4.953373"><time>2026-05-10T02:52:09Z</time></trkpt>
<trkpt lat="50.709050" lon="4.953745"><time>2026-05-10T03:02:09Z</time></trkpt>
<trkpt lat="50.708991" lon="4.954281"><time>2026-05-10T03:12:09Z</time></trkpt>
<trkpt lat="50.709077" lon="4.955168"><time>2026-05-10T03:22:09Z</time></trkpt>
</trkseg>
</trk>
<trk>
<name>bojmr58</name>
<cmt>s</cmt>
<desc>Marilles Sentier n°58 </desc>
<link href="https://chemins.be/marilles/sentier/58"/><trkseg>
<trkpt lat="50.695178" lon="4.957486"><time>2026-05-10T02:22:09Z</time></trkpt>
<trkpt lat="50.694295" lon="4.958394"><time>2026-05-10T02:32:09Z</time></trkpt>
<trkpt lat="50.693053" lon="4.958573"><time>2026-05-10T02:42:09Z</time></trkpt>
</trkseg>
</trk>
<trk>
<name>bojmr58bis</name>
<cmt>s</cmt>
<desc>Marilles Sentier n°58bis </desc>
<link href="https://chemins.be/marilles/sentier/58bis"/><trkseg>
<trkpt lat="50.696808" lon="4.958564"><time>2026-05-10T02:22:09Z</time></trkpt>
<trkpt lat="50.694389" lon="4.958421"><time>2026-05-10T02:32:09Z</time></trkpt>
</trkseg>
</trk>
<trk>
<name>bojmr6</name>
<cmt>v</cmt>
<desc>Marilles Chemin n°6 rue du Village</desc>
<link href="https://chemins.be/marilles/chemin/6"/><trkseg>
<trkpt lat="50.701428" lon="4.939495"><time>2026-05-10T02:22:09Z</time></trkpt>
<trkpt lat="50.701303" lon="4.939323"><time>2026-05-10T02:32:09Z</time></trkpt>
<trkpt lat="50.700874" lon="4.938879"><time>2026-05-10T02:42:09Z</time></trkpt>
<trkpt lat="50.700767" lon="4.938680"><time>2026-05-10T02:52:09Z</time></trkpt>
<trkpt lat="50.700643" lon="4.938296"><time>2026-05-10T03:02:09Z</time></trkpt>
</trkseg></trk>
<trk>
<name>bojmr6</name>
<cmt>q</cmt>
<desc>Marilles Chemin n°6 rue du Village</desc>
<link href="https://chemins.be/marilles/chemin/6"/><trkseg>
<trkpt lat="50.700643" lon="4.938296"><time>2026-05-10T03:02:09Z</time></trkpt>
<trkpt lat="50.698438" lon="4.935084"><time>2026-05-10T03:12:09Z</time></trkpt>
<trkpt lat="50.697919" lon="4.934555"><time>2026-05-10T03:22:09Z</time></trkpt>
<trkpt lat="50.697840" lon="4.934299"><time>2026-05-10T03:32:09Z</time></trkpt>
</trkseg>
</trk>
<trk>
<name>bojmr60</name>
<cmt>r</cmt>
<desc>Marilles Chemin n°60 Rue du Prédécipe</desc>
<link href="https://chemins.be/marilles/chemin/60"/><trkseg>
<trkpt lat="50.707189" lon="4.952812"><time>2026-05-10T02:22:09Z</time></trkpt>
<trkpt lat="50.707681" lon="4.953439"><time>2026-05-10T02:32:09Z</time></trkpt>
</trkseg>
</trk>
<trk>
<name>bojmr61</name>
<cmt>s</cmt>
<desc>Marilles Sentier n°61 </desc>
<link href="https://chemins.be/marilles/sentier/61"/><trkseg>
<trkpt lat="50.710463" lon="4.949074"><time>2026-05-10T02:22:09Z</time></trkpt>
<trkpt lat="50.710830" lon="4.949790"><time>2026-05-10T02:32:09Z</time></trkpt>
<trkpt lat="50.710082" lon="4.951556"><time>2026-05-10T02:42:09Z</time></trkpt>
<trkpt lat="50.709593" lon="4.953566"><time>2026-05-10T02:52:09Z</time></trkpt>
<trkpt lat="50.709774" lon="4.953888"><time>2026-05-10T03:02:09Z</time></trkpt>
</trkseg>
</trk>
<trk>
<name>bojmr62</name>
<cmt>q</cmt>
<desc>Marilles Sentier n°62 </desc>
<link href="https://chemins.be/marilles/sentier/62"/><trkseg>
<trkpt lat="50.709063" lon="4.953752"><time>2026-05-10T02:22:09Z</time></trkpt>
<trkpt lat="50.709815" lon="4.953952"><time>2026-05-10T02:32:09Z</time></trkpt>
<trkpt lat="50.711744" lon="4.955540"><time>2026-05-10T02:42:09Z</time></trkpt>
<trkpt lat="50.712297" lon="4.956270"><time>2026-05-10T02:52:09Z</time></trkpt>
</trkseg>
</trk>
<trk>
<name>bojmr63</name>
<cmt>s</cmt>
<desc>Marilles Sentier n°63 </desc>
<link href="https://chemins.be/marilles/sentier/63"/><trkseg>
<trkpt lat="50.704341" lon="4.936949"><time>2026-05-10T02:22:09Z</time></trkpt>
<trkpt lat="50.704843" lon="4.936069"><time>2026-05-10T02:32:09Z</time></trkpt>
<trkpt lat="50.704932" lon="4.936112"><time>2026-05-10T02:42:09Z</time></trkpt>
<trkpt lat="50.706189" lon="4.933988"><time>2026-05-10T02:52:09Z</time></trkpt>
</trkseg>
</trk>
<trk>
<name>bojmr64</name>
<cmt>q</cmt>
<desc>Marilles Sentier n°64 </desc>
<link href="https://chemins.be/marilles/sentier/64"/><trkseg>
<trkpt lat="50.706263" lon="4.933977"><time>2026-05-10T02:22:09Z</time></trkpt>
<trkpt lat="50.706895" lon="4.930308"><time>2026-05-10T02:32:09Z</time></trkpt>
</trkseg>
</trk>
<trk>
<name>bojmr65</name>
<cmt>q</cmt>
<desc>Marilles Sentier n°65 </desc>
<link href="https://chemins.be/marilles/sentier/65"/><trkseg>
<trkpt lat="50.701207" lon="4.935128"><time>2026-05-10T02:22:09Z</time></trkpt>
<trkpt lat="50.700679" lon="4.934506"><time>2026-05-10T02:32:09Z</time></trkpt>
</trkseg>
</trk>
<trk>
<name>bojmr66</name>
<cmt>q</cmt>
<desc>Marilles Sentier n°66 </desc>
<link href="https://chemins.be/marilles/sentier/66"/><trkseg>
<trkpt lat="50.713280" lon="4.939888"><time>2026-05-10T02:22:09Z</time></trkpt>
<trkpt lat="50.713677" lon="4.938607"><time>2026-05-10T02:32:09Z</time></trkpt>
<trkpt lat="50.713946" lon="4.938314"><time>2026-05-10T02:42:09Z</time></trkpt>
</trkseg>
</trk>
<trk>
<name>bojmr67</name>
<cmt>s</cmt>
<desc>Marilles Sentier n°67 </desc>
<link href="https://chemins.be/marilles/sentier/67"/><trkseg>
<trkpt lat="50.701137" lon="4.930790"><time>2026-05-10T02:22:09Z</time></trkpt>
<trkpt lat="50.700584" lon="4.930282"><time>2026-05-10T02:32:09Z</time></trkpt>
</trkseg>
</trk>
<trk>
<name>bojmr69</name>
<cmt>q</cmt>
<desc>Marilles Sentier n°69 </desc>
<link href="https://chemins.be/marilles/sentier/69"/><trkseg>
<trkpt lat="50.701287" lon="4.924723"><time>2026-05-10T02:22:09Z</time></trkpt>
<trkpt lat="50.700303" lon="4.927041"><time>2026-05-10T02:32:09Z</time></trkpt>
<trkpt lat="50.699645" lon="4.928294"><time>2026-05-10T02:42:09Z</time></trkpt>
<trkpt lat="50.698938" lon="4.929745"><time>2026-05-10T02:52:09Z</time></trkpt>
</trkseg>
</trk>
<trk>
<name>bojmr70</name>
<cmt>s</cmt>
<desc>Marilles Sentier n°70 </desc>
<link href="https://chemins.be/marilles/sentier/70"/><trkseg>
<trkpt lat="50.708135" lon="4.944461"><time>2026-05-10T02:22:09Z</time></trkpt>
<trkpt lat="50.708801" lon="4.942924"><time>2026-05-10T02:32:09Z</time></trkpt>
</trkseg>
</trk>
<trk>
<name>bojmr71</name>
<cmt>s</cmt>
<desc>Marilles Chemin n°71 </desc>
<link href="https://chemins.be/marilles/chemin/71"/><trkseg>
<trkpt lat="50.713059" lon="4.948360"><time>2026-05-10T02:22:09Z</time></trkpt>
<trkpt lat="50.712699" lon="4.949007"><time>2026-05-10T02:32:09Z</time></trkpt>
<trkpt lat="50.712893" lon="4.949748"><time>2026-05-10T02:42:09Z</time></trkpt>
</trkseg>
</trk>
<trk>
<name>bojmr8</name>
<cmt>v</cmt>
<desc>Marilles Chemin n°8 Rue des Saules Benaud / Rue Brou de Gentissart</desc>
<link href="https://chemins.be/marilles/chemin/8"/><trkseg>
<trkpt lat="50.700290" lon="4.927089"><time>2026-05-10T02:22:09Z</time></trkpt>
<trkpt lat="50.700968" lon="4.927870"><time>2026-05-10T02:32:09Z</time></trkpt>
<trkpt lat="50.701704" lon="4.928355"><time>2026-05-10T02:42:09Z</time></trkpt>
</trkseg></trk>
<trk>
<name>bojmr8</name>
<cmt>r</cmt>
<desc>Marilles Chemin n°8 Rue des Saules Benaud / Rue Brou de Gentissart</desc>
<link href="https://chemins.be/marilles/chemin/8"/><trkseg>
<trkpt lat="50.701704" lon="4.928355"><time>2026-05-10T02:42:09Z</time></trkpt>
<trkpt lat="50.704395" lon="4.931767"><time>2026-05-10T02:52:09Z</time></trkpt>
<trkpt lat="50.706216" lon="4.933956"><time>2026-05-10T03:02:09Z</time></trkpt>
<trkpt lat="50.707880" lon="4.936458"><time>2026-05-10T03:12:09Z</time></trkpt>
<trkpt lat="50.709079" lon="4.937534"><time>2026-05-10T03:22:09Z</time></trkpt>
<trkpt lat="50.710118" lon="4.938411"><time>2026-05-10T03:32:09Z</time></trkpt>
<trkpt lat="50.710799" lon="4.938900"><time>2026-05-10T03:42:09Z</time></trkpt>
<trkpt lat="50.711129" lon="4.939329"><time>2026-05-10T03:52:09Z</time></trkpt>
<trkpt lat="50.711344" lon="4.939657"><time>2026-05-10T04:02:09Z</time></trkpt>
<trkpt lat="50.711828" lon="4.939847"><time>2026-05-10T04:12:09Z</time></trkpt>
<trkpt lat="50.712231" lon="4.940149"><time>2026-05-10T04:22:09Z</time></trkpt>
<trkpt lat="50.712454" lon="4.940648"><time>2026-05-10T04:32:09Z</time></trkpt>
<trkpt lat="50.712830" lon="4.940950"><time>2026-05-10T04:42:09Z</time></trkpt>
<trkpt lat="50.713572" lon="4.941723"><time>2026-05-10T04:52:09Z</time></trkpt>
<trkpt lat="50.714789" lon="4.942828"><time>2026-05-10T05:02:09Z</time></trkpt>
</trkseg></trk>
<trk>
<name>bojmr8</name>
<cmt>v</cmt>
<desc>Marilles Chemin n°8 Rue des Saules Benaud / Rue Brou de Gentissart</desc>
<link href="https://chemins.be/marilles/chemin/8"/><trkseg>
<trkpt lat="50.714789" lon="4.942828"><time>2026-05-10T05:02:09Z</time></trkpt>
<trkpt lat="50.718563" lon="4.945140"><time>2026-05-10T05:12:09Z</time></trkpt>
</trkseg>
</trk>
<trk>
<name>bojmr9</name>
<cmt>v</cmt>
<desc>Marilles Chemin n°9 </desc>
<link href="https://chemins.be/marilles/chemin/9"/><trkseg>
<trkpt lat="50.698859" lon="4.944588"><time>2026-05-10T02:22:09Z</time></trkpt>
<trkpt lat="50.699642" lon="4.942658"><time>2026-05-10T02:32:09Z</time></trkpt>
<trkpt lat="50.700422" lon="4.941148"><time>2026-05-10T02:42:09Z</time></trkpt>
<trkpt lat="50.696634" lon="4.937727"><time>2026-05-10T02:52:09Z</time></trkpt>
</trkseg>
</trk>
<trk>
<name>bojmri1</name>
<cmt>d</cmt>
<desc>Marilles Chemin n°i1 </desc>
<link href="https://chemins.be/marilles/chemin/i1"/><trkseg>
<trkpt lat="50.701769" lon="4.941438"><time>2026-05-10T02:22:09Z</time></trkpt>
<trkpt lat="50.701350" lon="4.942537"><time>2026-05-10T02:32:09Z</time></trkpt>
</trkseg>
</trk>
<trk>
<name>bojmri2</name>
<cmt>v</cmt>
<desc>Marilles Chemin n°i2 </desc>
<link href="https://chemins.be/marilles/chemin/i2"/><trkseg>
<trkpt lat="50.709559" lon="4.930662"><time>2026-05-10T02:22:09Z</time></trkpt>
<trkpt lat="50.710890" lon="4.931746"><time>2026-05-10T02:32:09Z</time></trkpt>
</trkseg>
</trk>
<trk>
<name>bojmri3</name>
<cmt>v</cmt>
<desc>Marilles Chemin n°i3 </desc>
<link href="https://chemins.be/marilles/chemin/i3"/><trkseg>
<trkpt lat="50.698242" lon="4.955314"><time>2026-05-10T02:22:09Z</time></trkpt>
<trkpt lat="50.699916" lon="4.955567"><time>2026-05-10T02:32:09Z</time></trkpt>
<trkpt lat="50.700606" lon="4.955550"><time>2026-05-10T02:42:09Z</time></trkpt>
<trkpt lat="50.701427" lon="4.955657"><time>2026-05-10T02:52:09Z</time></trkpt>
</trkseg>
</trk>
</gpx>